sensor_id;sensor_type;location;lat;lon;timestamp;temperature;humidity
72326;DHT22;60278;47.980;18.780;2022-07-22T00:00:10;21.97;56.78
72326;DHT22;60278;47.980;18.780;2022-07-22T00:03:41;22.08;56.06
72326;DHT22;60278;47.980;18.780;2022-07-22T00:07:13;22.01;56.16
72326;DHT22;60278;47.980;18.780;2022-07-22T00:10:44;21.98;55.92
72326;DHT22;60278;47.980;18.780;2022-07-22T00:14:16;21.94;56.07
72326;DHT22;60278;47.980;18.780;2022-07-22T00:17:47;21.71;57.76
72326;DHT22;60278;47.980;18.780;2022-07-22T00:21:18;21.49;58.83
72326;DHT22;60278;47.980;18.780;2022-07-22T00:24:49;21.73;56.97
72326;DHT22;60278;47.980;18.780;2022-07-22T00:28:20;21.86;55.14
72326;DHT22;60278;47.980;18.780;2022-07-22T00:31:52;21.68;55.71
72326;DHT22;60278;47.980;18.780;2022-07-22T00:35:23;21.47;57.45
72326;DHT22;60278;47.980;18.780;2022-07-22T00:38:54;21.12;59.68
72326;DHT22;60278;47.980;18.780;2022-07-22T00:42:26;21.33;58.01
72326;DHT22;60278;47.980;18.780;2022-07-22T00:45:57;21.36;57.53
72326;DHT22;60278;47.980;18.780;2022-07-22T00:49:28;20.60;61.40
72326;DHT22;60278;47.980;18.780;2022-07-22T00:53:00;20.45;62.22
72326;DHT22;60278;47.980;18.780;2022-07-22T00:56:31;20.24;63.18
72326;DHT22;60278;47.980;18.780;2022-07-22T01:00:05;20.09;63.11
72326;DHT22;60278;47.980;18.780;2022-07-22T01:03:37;19.94;63.39
72326;DHT22;60278;47.980;18.780;2022-07-22T01:07:08;20.17;62.55
72326;DHT22;60278;47.980;18.780;2022-07-22T01:10:39;20.33;61.90
72326;DHT22;60278;47.980;18.780;2022-07-22T01:14:11;20.43;61.31
72326;DHT22;60278;47.980;18.780;2022-07-22T01:17:42;20.60;60.60
72326;DHT22;60278;47.980;18.780;2022-07-22T01:21:14;20.61;60.98
72326;DHT22;60278;47.980;18.780;2022-07-22T01:24:46;20.44;61.51
72326;DHT22;60278;47.980;18.780;2022-07-22T01:28:18;19.73;63.96
72326;DHT22;60278;47.980;18.780;2022-07-22T01:31:49;19.65;64.18
72326;DHT22;60278;47.980;18.780;2022-07-22T01:35:20;19.58;63.22
72326;DHT22;60278;47.980;18.780;2022-07-22T01:38:52;19.80;62.45
72326;DHT22;60278;47.980;18.780;2022-07-22T01:42:23;20.03;61.90
72326;DHT22;60278;47.980;18.780;2022-07-22T01:45:54;19.83;63.09
72326;DHT22;60278;47.980;18.780;2022-07-22T01:49:26;19.73;63.42
72326;DHT22;60278;47.980;18.780;2022-07-22T01:52:57;19.73;63.90
72326;DHT22;60278;47.980;18.780;2022-07-22T01:56:30;19.48;64.83
72326;DHT22;60278;47.980;18.780;2022-07-22T02:00:05;19.62;64.35
72326;DHT22;60278;47.980;18.780;2022-07-22T02:03:47;19.38;65.40
72326;DHT22;60278;47.980;18.780;2022-07-22T02:07:18;19.12;66.67
72326;DHT22;60278;47.980;18.780;2022-07-22T02:10:49;19.08;66.70
72326;DHT22;60278;47.980;18.780;2022-07-22T02:14:21;19.22;66.21
72326;DHT22;60278;47.980;18.780;2022-07-22T02:17:54;19.27;66.17
72326;DHT22;60278;47.980;18.780;2022-07-22T02:21:26;19.21;66.08
72326;DHT22;60278;47.980;18.780;2022-07-22T02:25:03;18.81;67.49
72326;DHT22;60278;47.980;18.780;2022-07-22T02:28:35;18.96;66.93
72326;DHT22;60278;47.980;18.780;2022-07-22T02:32:07;19.04;66.69
72326;DHT22;60278;47.980;18.780;2022-07-22T02:35:38;19.25;66.20
72326;DHT22;60278;47.980;18.780;2022-07-22T02:39:10;19.55;64.75
72326;DHT22;60278;47.980;18.780;2022-07-22T02:42:41;19.63;64.46
72326;DHT22;60278;47.980;18.780;2022-07-22T02:46:12;19.62;64.42
72326;DHT22;60278;47.980;18.780;2022-07-22T02:49:43;19.59;64.39
72326;DHT22;60278;47.980;18.780;2022-07-22T02:53:15;19.51;64.35
72326;DHT22;60278;47.980;18.780;2022-07-22T02:56:46;19.61;63.93
72326;DHT22;60278;47.980;18.780;2022-07-22T03:00:17;19.58;63.82
72326;DHT22;60278;47.980;18.780;2022-07-22T03:03:50;19.51;63.84
72326;DHT22;60278;47.980;18.780;2022-07-22T03:07:21;19.31;64.51
72326;DHT22;60278;47.980;18.780;2022-07-22T03:10:53;18.99;65.54
72326;DHT22;60278;47.980;18.780;2022-07-22T03:14:25;19.15;64.92
72326;DHT22;60278;47.980;18.780;2022-07-22T03:17:57;19.04;65.82
72326;DHT22;60278;47.980;18.780;2022-07-22T03:21:30;18.90;66.34
72326;DHT22;60278;47.980;18.780;2022-07-22T03:25:01;18.96;65.91
72326;DHT22;60278;47.980;18.780;2022-07-22T03:28:32;19.06;65.72
72326;DHT22;60278;47.980;18.780;2022-07-22T03:32:04;19.49;64.34
72326;DHT22;60278;47.980;18.780;2022-07-22T03:35:46;19.49;64.13
72326;DHT22;60278;47.980;18.780;2022-07-22T03:39:18;19.51;63.75
72326;DHT22;60278;47.980;18.780;2022-07-22T03:42:49;19.58;63.69
72326;DHT22;60278;47.980;18.780;2022-07-22T03:46:21;19.52;63.86
72326;DHT22;60278;47.980;18.780;2022-07-22T03:49:52;19.28;64.77
72326;DHT22;60278;47.980;18.780;2022-07-22T03:53:30;19.49;64.42
72326;DHT22;60278;47.980;18.780;2022-07-22T03:57:01;19.68;63.73
72326;DHT22;60278;47.980;18.780;2022-07-22T04:00:33;19.87;63.24
72326;DHT22;60278;47.980;18.780;2022-07-22T04:04:07;19.93;62.46
72326;DHT22;60278;47.980;18.780;2022-07-22T04:07:49;19.92;62.41
72326;DHT22;60278;47.980;18.780;2022-07-22T04:11:21;19.89;62.51
72326;DHT22;60278;47.980;18.780;2022-07-22T04:14:52;20.65;60.29
72326;DHT22;60278;47.980;18.780;2022-07-22T04:18:23;20.75;59.63
72326;DHT22;60278;47.980;18.780;2022-07-22T04:21:55;20.78;59.36
72326;DHT22;60278;47.980;18.780;2022-07-22T04:25:29;20.51;60.45
72326;DHT22;60278;47.980;18.780;2022-07-22T04:29:01;20.51;60.76
72326;DHT22;60278;47.980;18.780;2022-07-22T04:32:33;20.78;60.17
72326;DHT22;60278;47.980;18.780;2022-07-22T04:36:05;22.01;56.89
72326;DHT22;60278;47.980;18.780;2022-07-22T04:39:36;22.27;55.78
72326;DHT22;60278;47.980;18.780;2022-07-22T04:43:08;21.64;57.02
72326;DHT22;60278;47.980;18.780;2022-07-22T04:46:39;21.61;57.31
72326;DHT22;60278;47.980;18.780;2022-07-22T04:50:10;21.13;58.61
72326;DHT22;60278;47.980;18.780;2022-07-22T04:53:43;21.56;57.91
72326;DHT22;60278;47.980;18.780;2022-07-22T04:57:15;22.01;56.57
72326;DHT22;60278;47.980;18.780;2022-07-22T05:00:46;22.04;56.58
72326;DHT22;60278;47.980;18.780;2022-07-22T05:04:17;22.18;56.30
72326;DHT22;60278;47.980;18.780;2022-07-22T05:07:50;22.28;56.31
72326;DHT22;60278;47.980;18.780;2022-07-22T05:11:21;22.24;57.11
72326;DHT22;60278;47.980;18.780;2022-07-22T05:14:53;22.73;56.19
72326;DHT22;60278;47.980;18.780;2022-07-22T05:18:24;22.97;55.53
72326;DHT22;60278;47.980;18.780;2022-07-22T05:21:56;22.70;56.53
72326;DHT22;60278;47.980;18.780;2022-07-22T05:25:27;22.70;57.39
72326;DHT22;60278;47.980;18.780;2022-07-22T05:28:58;22.76;57.71
72326;DHT22;60278;47.980;18.780;2022-07-22T05:32:31;23.06;57.21
72326;DHT22;60278;47.980;18.780;2022-07-22T05:36:05;23.40;56.78
72326;DHT22;60278;47.980;18.780;2022-07-22T05:39:43;23.69;56.66
72326;DHT22;60278;47.980;18.780;2022-07-22T05:43:14;23.96;56.47
72326;DHT22;60278;47.980;18.780;2022-07-22T05:46:45;24.17;56.28
72326;DHT22;60278;47.980;18.780;2022-07-22T05:50:17;24.37;57.03
72326;DHT22;60278;47.980;18.780;2022-07-22T05:53:50;24.68;57.37
72326;DHT22;60278;47.980;18.780;2022-07-22T05:57:21;25.04;57.73
72326;DHT22;60278;47.980;18.780;2022-07-22T06:00:52;25.28;57.59
72326;DHT22;60278;47.980;18.780;2022-07-22T06:04:23;25.69;57.11
72326;DHT22;60278;47.980;18.780;2022-07-22T06:07:55;25.87;57.02
72326;DHT22;60278;47.980;18.780;2022-07-22T06:11:52;26.14;56.65
72326;DHT22;60278;47.980;18.780;2022-07-22T06:15:23;26.17;56.47
72326;DHT22;60278;47.980;18.780;2022-07-22T06:18:56;26.34;55.92
72326;DHT22;60278;47.980;18.780;2022-07-22T06:22:27;26.43;55.83
72326;DHT22;60278;47.980;18.780;2022-07-22T06:25:59;26.62;55.07
72326;DHT22;60278;47.980;18.780;2022-07-22T06:29:37;26.44;56.15
72326;DHT22;60278;47.980;18.780;2022-07-22T06:33:09;26.55;56.27
72326;DHT22;60278;47.980;18.780;2022-07-22T06:36:40;26.74;55.96
72326;DHT22;60278;47.980;18.780;2022-07-22T06:40:12;26.72;56.01
72326;DHT22;60278;47.980;18.780;2022-07-22T06:44:03;26.58;56.12
72326;DHT22;60278;47.980;18.780;2022-07-22T06:47:53;26.92;55.35
72326;DHT22;60278;47.980;18.780;2022-07-22T06:51:24;27.07;54.25
72326;DHT22;60278;47.980;18.780;2022-07-22T06:54:56;27.24;53.95
72326;DHT22;60278;47.980;18.780;2022-07-22T06:58:32;27.23;54.78
72326;DHT22;60278;47.980;18.780;2022-07-22T07:02:03;27.51;53.17
72326;DHT22;60278;47.980;18.780;2022-07-22T07:05:34;27.39;54.55
72326;DHT22;60278;47.980;18.780;2022-07-22T07:09:05;27.49;53.66
72326;DHT22;60278;47.980;18.780;2022-07-22T07:12:38;27.77;52.59
72326;DHT22;60278;47.980;18.780;2022-07-22T07:16:12;27.67;52.47
72326;DHT22;60278;47.980;18.780;2022-07-22T07:19:43;27.44;53.42
72326;DHT22;60278;47.980;18.780;2022-07-22T07:23:15;27.40;53.25
72326;DHT22;60278;47.980;18.780;2022-07-22T07:26:49;27.44;54.61
72326;DHT22;60278;47.980;18.780;2022-07-22T07:30:22;27.58;54.17
72326;DHT22;60278;47.980;18.780;2022-07-22T07:33:53;28.84;50.53
72326;DHT22;60278;47.980;18.780;2022-07-22T07:37:25;29.14;49.99
72326;DHT22;60278;47.980;18.780;2022-07-22T07:40:56;29.68;48.78
72326;DHT22;60278;47.980;18.780;2022-07-22T07:44:28;29.34;49.41
72326;DHT22;60278;47.980;18.780;2022-07-22T07:47:59;28.89;50.78
72326;DHT22;60278;47.980;18.780;2022-07-22T07:51:32;29.61;48.91
72326;DHT22;60278;47.980;18.780;2022-07-22T07:55:03;29.98;47.77
72326;DHT22;60278;47.980;18.780;2022-07-22T07:58:35;29.75;48.31
72326;DHT22;60278;47.980;18.780;2022-07-22T08:02:06;30.16;47.51
72326;DHT22;60278;47.980;18.780;2022-07-22T08:05:38;31.43;45.27
72326;DHT22;60278;47.980;18.780;2022-07-22T08:09:13;31.02;45.36
72326;DHT22;60278;47.980;18.780;2022-07-22T08:12:48;32.04;43.31
72326;DHT22;60278;47.980;18.780;2022-07-22T08:16:31;32.83;42.29
72326;DHT22;60278;47.980;18.780;2022-07-22T08:20:04;32.45;41.58
72326;DHT22;60278;47.980;18.780;2022-07-22T08:23:35;32.95;41.25
72326;DHT22;60278;47.980;18.780;2022-07-22T08:27:07;33.43;39.98
72326;DHT22;60278;47.980;18.780;2022-07-22T08:30:38;33.64;39.99
72326;DHT22;60278;47.980;18.780;2022-07-22T08:34:11;33.00;40.06
72326;DHT22;60278;47.980;18.780;2022-07-22T08:37:42;33.51;39.15
72326;DHT22;60278;47.980;18.780;2022-07-22T08:41:17;33.08;38.99
72326;DHT22;60278;47.980;18.780;2022-07-22T08:44:50;33.29;37.87
72326;DHT22;60278;47.980;18.780;2022-07-22T08:48:21;33.66;37.11
72326;DHT22;60278;47.980;18.780;2022-07-22T08:51:59;33.76;37.44
72326;DHT22;60278;47.980;18.780;2022-07-22T08:55:33;34.55;35.90
72326;DHT22;60278;47.980;18.780;2022-07-22T08:59:04;34.24;35.42
72326;DHT22;60278;47.980;18.780;2022-07-22T09:02:40;33.97;35.65
72326;DHT22;60278;47.980;18.780;2022-07-22T09:06:13;34.28;34.65
72326;DHT22;60278;47.980;18.780;2022-07-22T09:09:45;34.79;33.56
72326;DHT22;60278;47.980;18.780;2022-07-22T09:13:37;34.35;34.32
72326;DHT22;60278;47.980;18.780;2022-07-22T09:17:44;34.45;33.87
72326;DHT22;60278;47.980;18.780;2022-07-22T09:21:31;34.92;33.29
72326;DHT22;60278;47.980;18.780;2022-07-22T09:25:21;34.73;33.78
72326;DHT22;60278;47.980;18.780;2022-07-22T09:29:12;35.44;33.77
72326;DHT22;60278;47.980;18.780;2022-07-22T09:32:52;35.27;34.18
72326;DHT22;60278;47.980;18.780;2022-07-22T09:36:54;35.20;34.30
72326;DHT22;60278;47.980;18.780;2022-07-22T09:40:37;35.33;34.33
72326;DHT22;60278;47.980;18.780;2022-07-22T09:44:22;34.93;34.89
72326;DHT22;60278;47.980;18.780;2022-07-22T09:47:56;35.45;34.54
72326;DHT22;60278;47.980;18.780;2022-07-22T09:51:50;36.29;33.82
72326;DHT22;60278;47.980;18.780;2022-07-22T09:55:31;35.38;34.59
72326;DHT22;60278;47.980;18.780;2022-07-22T09:59:04;35.57;34.73
72326;DHT22;60278;47.980;18.780;2022-07-22T10:02:51;35.47;34.92
72326;DHT22;60278;47.980;18.780;2022-07-22T10:06:24;36.22;34.21
72326;DHT22;60278;47.980;18.780;2022-07-22T10:09:55;36.46;34.32
72326;DHT22;60278;47.980;18.780;2022-07-22T10:13:27;36.25;34.22
72326;DHT22;60278;47.980;18.780;2022-07-22T10:16:59;37.11;33.14
72326;DHT22;60278;47.980;18.780;2022-07-22T10:20:30;36.91;33.12
72326;DHT22;60278;47.980;18.780;2022-07-22T10:24:11;36.52;34.00
72326;DHT22;60278;47.980;18.780;2022-07-22T10:28:06;35.70;34.72
72326;DHT22;60278;47.980;18.780;2022-07-22T10:31:38;36.73;33.23
72326;DHT22;60278;47.980;18.780;2022-07-22T10:39:02;37.55;31.37
72326;DHT22;60278;47.980;18.780;2022-07-22T10:46:57;37.99;30.34
72326;DHT22;60278;47.980;18.780;2022-07-22T10:54:08;38.02;30.25
72326;DHT22;60278;47.980;18.780;2022-07-22T10:57:39;37.71;30.37
72326;DHT22;60278;47.980;18.780;2022-07-22T11:01:13;38.00;30.11
72326;DHT22;60278;47.980;18.780;2022-07-22T11:04:44;39.12;28.69
72326;DHT22;60278;47.980;18.780;2022-07-22T11:08:16;39.21;28.97
72326;DHT22;60278;47.980;18.780;2022-07-22T11:11:53;38.88;28.72
72326;DHT22;60278;47.980;18.780;2022-07-22T11:15:25;38.37;28.74
72326;DHT22;60278;47.980;18.780;2022-07-22T11:19:00;38.16;28.83
72326;DHT22;60278;47.980;18.780;2022-07-22T11:22:32;38.27;28.77
72326;DHT22;60278;47.980;18.780;2022-07-22T11:26:04;38.40;28.55
72326;DHT22;60278;47.980;18.780;2022-07-22T11:29:37;38.26;28.80
72326;DHT22;60278;47.980;18.780;2022-07-22T11:33:10;38.20;29.52
72326;DHT22;60278;47.980;18.780;2022-07-22T11:36:43;38.44;28.69
72326;DHT22;60278;47.980;18.780;2022-07-22T11:40:15;38.19;29.29
72326;DHT22;60278;47.980;18.780;2022-07-22T11:43:50;39.07;28.84
72326;DHT22;60278;47.980;18.780;2022-07-22T11:47:21;38.61;29.17
72326;DHT22;60278;47.980;18.780;2022-07-22T11:50:59;38.29;29.10
72326;DHT22;60278;47.980;18.780;2022-07-22T11:54:31;38.87;27.65
72326;DHT22;60278;47.980;18.780;2022-07-22T11:58:02;38.47;28.83
72326;DHT22;60278;47.980;18.780;2022-07-22T12:01:35;38.43;28.80
72326;DHT22;60278;47.980;18.780;2022-07-22T12:05:07;38.47;28.72
72326;DHT22;60278;47.980;18.780;2022-07-22T12:08:44;38.90;29.03
72326;DHT22;60278;47.980;18.780;2022-07-22T12:12:16;39.02;29.12
72326;DHT22;60278;47.980;18.780;2022-07-22T12:15:47;39.02;29.01
72326;DHT22;60278;47.980;18.780;2022-07-22T12:19:19;38.56;28.25
72326;DHT22;60278;47.980;18.780;2022-07-22T12:22:50;38.61;28.39
72326;DHT22;60278;47.980;18.780;2022-07-22T12:26:40;38.84;28.47
72326;DHT22;60278;47.980;18.780;2022-07-22T12:30:12;38.97;28.72
72326;DHT22;60278;47.980;18.780;2022-07-22T12:33:47;38.97;28.57
72326;DHT22;60278;47.980;18.780;2022-07-22T12:41:21;38.13;29.06
72326;DHT22;60278;47.980;18.780;2022-07-22T12:45:04;38.15;29.04
72326;DHT22;60278;47.980;18.780;2022-07-22T12:48:35;37.94;28.96
72326;DHT22;60278;47.980;18.780;2022-07-22T12:52:08;38.53;28.79
72326;DHT22;60278;47.980;18.780;2022-07-22T12:55:42;38.75;28.34
72326;DHT22;60278;47.980;18.780;2022-07-22T12:59:14;38.03;28.64
72326;DHT22;60278;47.980;18.780;2022-07-22T13:02:45;38.19;27.62
72326;DHT22;60278;47.980;18.780;2022-07-22T13:06:16;38.19;27.79
72326;DHT22;60278;47.980;18.780;2022-07-22T13:09:47;37.82;28.82
72326;DHT22;60278;47.980;18.780;2022-07-22T13:13:19;37.99;29.16
72326;DHT22;60278;47.980;18.780;2022-07-22T13:16:50;38.39;28.57
72326;DHT22;60278;47.980;18.780;2022-07-22T13:20:21;37.75;28.95
72326;DHT22;60278;47.980;18.780;2022-07-22T13:23:53;37.68;28.95
72326;DHT22;60278;47.980;18.780;2022-07-22T13:27:24;37.58;28.10
72326;DHT22;60278;47.980;18.780;2022-07-22T13:30:55;37.55;28.19
72326;DHT22;60278;47.980;18.780;2022-07-22T13:34:26;37.93;28.54
72326;DHT22;60278;47.980;18.780;2022-07-22T13:37:57;37.42;28.43
72326;DHT22;60278;47.980;18.780;2022-07-22T13:41:28;37.37;29.32
72326;DHT22;60278;47.980;18.780;2022-07-22T13:44:59;37.59;28.84
72326;DHT22;60278;47.980;18.780;2022-07-22T13:48:30;37.61;29.36
72326;DHT22;60278;47.980;18.780;2022-07-22T13:52:02;37.03;30.00
72326;DHT22;60278;47.980;18.780;2022-07-22T13:55:34;37.43;29.47
72326;DHT22;60278;47.980;18.780;2022-07-22T13:59:05;36.73;29.28
72326;DHT22;60278;47.980;18.780;2022-07-22T14:02:37;37.31;29.28
72326;DHT22;60278;47.980;18.780;2022-07-22T14:06:08;37.45;28.29
72326;DHT22;60278;47.980;18.780;2022-07-22T14:09:42;37.03;28.41
72326;DHT22;60278;47.980;18.780;2022-07-22T14:13:13;37.14;28.63
72326;DHT22;60278;47.980;18.780;2022-07-22T14:16:44;37.25;28.25
72326;DHT22;60278;47.980;18.780;2022-07-22T14:20:15;37.15;27.92
72326;DHT22;60278;47.980;18.780;2022-07-22T14:23:46;36.81;28.34
72326;DHT22;60278;47.980;18.780;2022-07-22T14:27:17;37.08;28.98
72326;DHT22;60278;47.980;18.780;2022-07-22T14:30:48;37.07;28.66
72326;DHT22;60278;47.980;18.780;2022-07-22T14:34:19;36.93;28.56
72326;DHT22;60278;47.980;18.780;2022-07-22T14:37:50;37.17;28.25
72326;DHT22;60278;47.980;18.780;2022-07-22T14:41:22;36.62;28.68
72326;DHT22;60278;47.980;18.780;2022-07-22T14:44:53;36.60;28.79
72326;DHT22;60278;47.980;18.780;2022-07-22T14:48:24;36.67;29.54
72326;DHT22;60278;47.980;18.780;2022-07-22T14:51:55;36.77;29.24
72326;DHT22;60278;47.980;18.780;2022-07-22T14:55:26;36.90;28.66
72326;DHT22;60278;47.980;18.780;2022-07-22T14:58:57;36.84;28.37
72326;DHT22;60278;47.980;18.780;2022-07-22T15:02:28;36.79;28.48
72326;DHT22;60278;47.980;18.780;2022-07-22T15:05:59;36.70;28.64
72326;DHT22;60278;47.980;18.780;2022-07-22T15:09:30;36.86;27.79
72326;DHT22;60278;47.980;18.780;2022-07-22T15:13:01;36.63;28.26
72326;DHT22;60278;47.980;18.780;2022-07-22T15:16:33;36.25;28.51
72326;DHT22;60278;47.980;18.780;2022-07-22T15:20:06;36.46;28.15
72326;DHT22;60278;47.980;18.780;2022-07-22T15:23:37;36.01;28.21
72326;DHT22;60278;47.980;18.780;2022-07-22T15:27:08;36.12;28.64
72326;DHT22;60278;47.980;18.780;2022-07-22T15:30:39;36.28;29.60
72326;DHT22;60278;47.980;18.780;2022-07-22T15:34:10;36.15;29.31
72326;DHT22;60278;47.980;18.780;2022-07-22T15:37:41;35.84;30.28
72326;DHT22;60278;47.980;18.780;2022-07-22T15:41:12;35.91;30.48
72326;DHT22;60278;47.980;18.780;2022-07-22T15:44:43;35.88;29.68
72326;DHT22;60278;47.980;18.780;2022-07-22T15:48:14;35.81;29.47
72326;DHT22;60278;47.980;18.780;2022-07-22T15:51:47;35.75;29.48
72326;DHT22;60278;47.980;18.780;2022-07-22T15:55:18;35.61;29.78
72326;DHT22;60278;47.980;18.780;2022-07-22T15:58:49;35.64;29.88
72326;DHT22;60278;47.980;18.780;2022-07-22T16:02:39;35.53;29.48
72326;DHT22;60278;47.980;18.780;2022-07-22T16:06:10;35.57;29.61
72326;DHT22;60278;47.980;18.780;2022-07-22T16:09:41;35.54;29.79
72326;DHT22;60278;47.980;18.780;2022-07-22T16:13:12;35.44;29.72
72326;DHT22;60278;47.980;18.780;2022-07-22T16:16:43;35.45;30.07
72326;DHT22;60278;47.980;18.780;2022-07-22T16:20:14;35.27;30.01
72326;DHT22;60278;47.980;18.780;2022-07-22T16:23:45;35.10;30.94
72326;DHT22;60278;47.980;18.780;2022-07-22T16:27:16;35.10;30.59
72326;DHT22;60278;47.980;18.780;2022-07-22T16:30:47;35.03;30.52
72326;DHT22;60278;47.980;18.780;2022-07-22T16:34:19;34.87;31.52
72326;DHT22;60278;47.980;18.780;2022-07-22T16:37:50;34.78;31.37
72326;DHT22;60278;47.980;18.780;2022-07-22T16:41:21;34.67;31.79
72326;DHT22;60278;47.980;18.780;2022-07-22T16:44:52;34.59;32.14
72326;DHT22;60278;47.980;18.780;2022-07-22T16:48:23;34.49;33.10
72326;DHT22;60278;47.980;18.780;2022-07-22T16:51:54;34.56;32.69
72326;DHT22;60278;47.980;18.780;2022-07-22T16:55:25;34.53;32.85
72326;DHT22;60278;47.980;18.780;2022-07-22T16:58:56;34.51;32.79
72326;DHT22;60278;47.980;18.780;2022-07-22T17:02:27;34.34;33.26
72326;DHT22;60278;47.980;18.780;2022-07-22T17:05:58;34.26;33.02
72326;DHT22;60278;47.980;18.780;2022-07-22T17:09:30;34.15;33.63
72326;DHT22;60278;47.980;18.780;2022-07-22T17:13:01;33.97;34.03
72326;DHT22;60278;47.980;18.780;2022-07-22T17:16:32;33.91;34.11
72326;DHT22;60278;47.980;18.780;2022-07-22T17:20:04;33.68;34.54
72326;DHT22;60278;47.980;18.780;2022-07-22T17:23:35;33.58;34.42
72326;DHT22;60278;47.980;18.780;2022-07-22T17:27:06;33.67;33.80
72326;DHT22;60278;47.980;18.780;2022-07-22T17:30:37;33.45;34.95
72326;DHT22;60278;47.980;18.780;2022-07-22T17:34:09;33.43;34.18
72326;DHT22;60278;47.980;18.780;2022-07-22T17:37:40;33.26;34.71
72326;DHT22;60278;47.980;18.780;2022-07-22T17:41:11;33.05;35.12
72326;DHT22;60278;47.980;18.780;2022-07-22T17:44:43;33.09;34.83
72326;DHT22;60278;47.980;18.780;2022-07-22T17:48:14;32.86;35.46
72326;DHT22;60278;47.980;18.780;2022-07-22T17:51:45;32.71;35.94
72326;DHT22;60278;47.980;18.780;2022-07-22T17:55:16;32.59;35.87
72326;DHT22;60278;47.980;18.780;2022-07-22T17:58:47;32.40;36.47
72326;DHT22;60278;47.980;18.780;2022-07-22T18:02:19;32.30;36.47
72326;DHT22;60278;47.980;18.780;2022-07-22T18:05:51;32.17;36.77
72326;DHT22;60278;47.980;18.780;2022-07-22T18:09:22;31.96;37.39
72326;DHT22;60278;47.980;18.780;2022-07-22T18:12:53;31.77;38.21
72326;DHT22;60278;47.980;18.780;2022-07-22T18:16:25;31.79;37.59
72326;DHT22;60278;47.980;18.780;2022-07-22T18:19:56;31.59;38.17
72326;DHT22;60278;47.980;18.780;2022-07-22T18:23:27;31.39;39.08
72326;DHT22;60278;47.980;18.780;2022-07-22T18:26:58;31.21;39.28
72326;DHT22;60278;47.980;18.780;2022-07-22T18:30:29;31.05;39.55
72326;DHT22;60278;47.980;18.780;2022-07-22T18:34:00;30.87;40.42
72326;DHT22;60278;47.980;18.780;2022-07-22T18:37:31;30.74;40.08
72326;DHT22;60278;47.980;18.780;2022-07-22T18:41:02;30.59;40.46
72326;DHT22;60278;47.980;18.780;2022-07-22T18:44:33;30.44;41.46
72326;DHT22;60278;47.980;18.780;2022-07-22T18:48:04;30.27;41.85
72326;DHT22;60278;47.980;18.780;2022-07-22T18:51:35;30.14;42.08
72326;DHT22;60278;47.980;18.780;2022-07-22T18:55:07;30.02;42.39
72326;DHT22;60278;47.980;18.780;2022-07-22T18:58:38;29.83;43.26
72326;DHT22;60278;47.980;18.780;2022-07-22T19:02:10;29.68;43.39
72326;DHT22;60278;47.980;18.780;2022-07-22T19:05:41;29.52;43.29
72326;DHT22;60278;47.980;18.780;2022-07-22T19:09:13;29.37;43.75
72326;DHT22;60278;47.980;18.780;2022-07-22T19:12:44;29.25;43.98
72326;DHT22;60278;47.980;18.780;2022-07-22T19:16:15;29.07;44.61
72326;DHT22;60278;47.980;18.780;2022-07-22T19:19:46;29.03;44.44
72326;DHT22;60278;47.980;18.780;2022-07-22T19:23:17;28.80;45.12
72326;DHT22;60278;47.980;18.780;2022-07-22T19:26:50;28.49;45.21
72326;DHT22;60278;47.980;18.780;2022-07-22T19:30:21;28.43;45.18
72326;DHT22;60278;47.980;18.780;2022-07-22T19:33:52;28.32;45.32
72326;DHT22;60278;47.980;18.780;2022-07-22T19:37:25;28.11;45.06
72326;DHT22;60278;47.980;18.780;2022-07-22T19:40:56;27.88;45.04
72326;DHT22;60278;47.980;18.780;2022-07-22T19:44:28;27.74;47.89
72326;DHT22;60278;47.980;18.780;2022-07-22T19:47:59;27.44;48.94
72326;DHT22;60278;47.980;18.780;2022-07-22T19:51:30;27.32;48.18
72326;DHT22;60278;47.980;18.780;2022-07-22T19:55:02;27.12;49.31
72326;DHT22;60278;47.980;18.780;2022-07-22T19:58:33;27.02;48.11
72326;DHT22;60278;47.980;18.780;2022-07-22T20:02:06;26.78;49.36
72326;DHT22;60278;47.980;18.780;2022-07-22T20:05:37;26.86;49.07
72326;DHT22;60278;47.980;18.780;2022-07-22T20:09:08;26.74;50.06
72326;DHT22;60278;47.980;18.780;2022-07-22T20:12:39;26.67;50.24
72326;DHT22;60278;47.980;18.780;2022-07-22T20:16:10;26.56;50.67
72326;DHT22;60278;47.980;18.780;2022-07-22T20:19:41;26.79;49.30
72326;DHT22;60278;47.980;18.780;2022-07-22T20:23:12;26.78;49.74
72326;DHT22;60278;47.980;18.780;2022-07-22T20:31:43;26.33;51.00
72326;DHT22;60278;47.980;18.780;2022-07-22T20:35:14;26.40;50.69
72326;DHT22;60278;47.980;18.780;2022-07-22T20:38:45;25.98;51.79
72326;DHT22;60278;47.980;18.780;2022-07-22T20:42:16;26.10;51.62
72326;DHT22;60278;47.980;18.780;2022-07-22T20:45:48;25.89;52.28
72326;DHT22;60278;47.980;18.780;2022-07-22T20:49:19;25.72;52.83
72326;DHT22;60278;47.980;18.780;2022-07-22T20:52:50;25.85;52.38
72326;DHT22;60278;47.980;18.780;2022-07-22T20:56:21;26.14;51.51
72326;DHT22;60278;47.980;18.780;2022-07-22T20:59:52;26.04;51.78
72326;DHT22;60278;47.980;18.780;2022-07-22T21:03:23;25.79;52.25
72326;DHT22;60278;47.980;18.780;2022-07-22T21:06:54;25.79;52.00
72326;DHT22;60278;47.980;18.780;2022-07-22T21:10:25;25.77;52.05
72326;DHT22;60278;47.980;18.780;2022-07-22T21:13:56;25.63;52.46
72326;DHT22;60278;47.980;18.780;2022-07-22T21:17:28;25.31;53.24
72326;DHT22;60278;47.980;18.780;2022-07-22T21:21:00;25.21;54.35
72326;DHT22;60278;47.980;18.780;2022-07-22T21:24:31;25.36;53.59
72326;DHT22;60278;47.980;18.780;2022-07-22T21:28:02;25.32;53.46
72326;DHT22;60278;47.980;18.780;2022-07-22T21:31:33;25.43;53.65
72326;DHT22;60278;47.980;18.780;2022-07-22T21:35:06;25.26;53.91
72326;DHT22;60278;47.980;18.780;2022-07-22T21:38:37;24.91;54.71
72326;DHT22;60278;47.980;18.780;2022-07-22T21:42:08;24.71;55.13
72326;DHT22;60278;47.980;18.780;2022-07-22T21:45:39;24.73;55.13
72326;DHT22;60278;47.980;18.780;2022-07-22T21:49:10;24.76;55.33
72326;DHT22;60278;47.980;18.780;2022-07-22T21:52:42;25.10;54.51
72326;DHT22;60278;47.980;18.780;2022-07-22T21:56:13;25.10;54.93
72326;DHT22;60278;47.980;18.780;2022-07-22T22:00:05;24.91;55.30
72326;DHT22;60278;47.980;18.780;2022-07-22T22:03:40;24.84;55.34
72326;DHT22;60278;47.980;18.780;2022-07-22T22:07:11;24.67;56.12
72326;DHT22;60278;47.980;18.780;2022-07-22T22:10:42;24.36;57.41
72326;DHT22;60278;47.980;18.780;2022-07-22T22:14:14;24.27;57.81
72326;DHT22;60278;47.980;18.780;2022-07-22T22:17:45;24.26;58.02
72326;DHT22;60278;47.980;18.780;2022-07-22T22:21:16;24.39;57.69